Alpena, Arkansas
Current Conditions -  °F | °C
As of 2:53 AM on Friday 28 Nov 2014 (Local Time) from KHRO Reporting Station
Clear Clear  
Wind Chill: 30°   Ceiling: Unl
Heat Index: 34°   Visibility: 10mi
Dew Point: 26°   Wind: 5mph
Humidity: 73%   Direction: 140°SE
Pressure: 30.29"   Gusts: NA
Location:  36.29°N, 93.29°W
Report Text: KHRO 280853Z AUTO 14004KT 10SM CLR 01/M03 A3029 RMK AO2 SLP265 T00111033 55008
Loading
Personal Weather Stations






























Interactive Weather Map New forecast layout! Learn more

10-Day Weather Forecast

Advertisements
Track Severe Weather on mobile